Time;durP1;ratioP1;P1;durP2;ratioP2;P2;SDS_P1;SDS_P2;PMS_P1;PMS_P2;Temp;Humidity;BMP_temperature;BMP_pressure;BME280_temperature;BME280_humidity;BME280_pressure;Samples;Min_cycle;Max_cycle;Signal;HPM_P1;HPM_P2
2024/01/21 00:04:24;;;;;;;9.43;3.17;;;;;;;;;;10315884;28;20235;-68
2024/01/21 00:09:26;;;;;;;3.20;2.77;;;;;;;;;;10326646;28;20581;-68
2024/01/21 00:14:27;;;;;;;4.90;2.20;;;;;;;;;;10321841;28;20270;-67
2024/01/21 00:19:28;;;;;;;2.73;2.40;;;;;;;;;;10289885;28;20228;-67
2024/01/21 00:24:29;;;;;;;9.33;3.17;;;;;;;;;;10316128;28;20589;-68
2024/01/21 00:29:33;;;;;;;1.97;1.77;;;;;;;;;;10327172;28;20234;-67
2024/01/21 00:34:34;;;;;;;3.60;3.30;;;;;;;;;;10295874;28;20224;-68
2024/01/21 00:39:36;;;;;;;9.23;2.97;;;;;;;;;;10321655;28;20195;-68
2024/01/21 00:44:37;;;;;;;5.33;3.97;;;;;;;;;;10309088;28;20215;-68
2024/01/21 00:49:42;;;;;;;9.33;3.93;;;;;;;;;;10324735;28;20216;-68
2024/01/21 00:54:43;;;;;;;4.77;3.17;;;;;;;;;;10316280;28;20698;-68
2024/01/21 00:59:44;;;;;;;5.63;2.60;;;;;;;;;;10338160;28;20300;-69
2024/01/21 01:04:45;;;;;;;7.83;4.00;;;;;;;;;;10303537;28;20308;-68
2024/01/21 01:09:46;;;;;;;9.07;3.47;;;;;;;;;;10316640;28;20234;-68
2024/01/21 01:14:47;;;;;;;9.20;3.60;;;;;;;;;;10317314;28;20212;-68
2024/01/21 01:19:48;;;;;;;4.77;2.87;;;;;;;;;;10312113;28;20196;-68
2024/01/21 01:24:49;;;;;;;5.63;3.07;;;;;;;;;;10330194;28;20204;-69
2024/01/21 01:29:50;;;;;;;6.10;2.57;;;;;;;;;;10320442;28;20208;-68
2024/01/21 01:34:54;;;;;;;5.23;2.27;;;;;;;;;;10317931;28;20224;-68
2024/01/21 01:39:55;;;;;;;9.20;2.37;;;;;;;;;;10316148;28;20198;-68
2024/01/21 01:44:56;;;;;;;3.87;3.10;;;;;;;;;;10328282;28;20248;-68
2024/01/21 01:49:58;;;;;;;4.73;2.30;;;;;;;;;;10312702;28;20757;-69
2024/01/21 01:54:59;;;;;;;2.90;1.33;;;;;;;;;;10333491;28;20255;-68
2024/01/21 02:00:00;;;;;;;5.23;2.17;;;;;;;;;;10327007;28;20195;-68
2024/01/21 02:05:04;;;;;;;3.13;2.07;;;;;;;;;;10314370;28;20228;-68
2024/01/21 02:10:06;;;;;;;2.60;2.27;;;;;;;;;;10310412;28;20208;-68
2024/01/21 02:15:07;;;;;;;3.23;2.87;;;;;;;;;;10310346;28;20208;-69
2024/01/21 02:20:09;;;;;;;8.43;2.70;;;;;;;;;;10307897;28;20344;-69
2024/01/21 02:25:10;;;;;;;2.00;1.73;;;;;;;;;;10301682;28;20703;-68
2024/01/21 02:30:11;;;;;;;8.13;2.50;;;;;;;;;;10311083;28;20217;-68
2024/01/21 02:35:12;;;;;;;1.93;1.80;;;;;;;;;;10295108;28;20588;-68
2024/01/21 02:40:13;;;;;;;3.07;2.30;;;;;;;;;;10318474;28;20214;-68
2024/01/21 02:45:14;;;;;;;2.67;2.23;;;;;;;;;;10309060;28;20826;-68
2024/01/21 02:50:15;;;;;;;2.60;2.07;;;;;;;;;;10294258;28;20719;-68
2024/01/21 02:55:17;;;;;;;4.93;2.20;;;;;;;;;;10329080;28;20212;-68
2024/01/21 03:00:18;;;;;;;2.33;2.13;;;;;;;;;;10333653;28;20200;-66
2024/01/21 03:05:19;;;;;;;1.73;1.63;;;;;;;;;;10309221;28;20667;-68
2024/01/21 03:10:20;;;;;;;2.83;1.97;;;;;;;;;;10312666;28;20299;-68
2024/01/21 03:15:21;;;;;;;2.30;1.47;;;;;;;;;;10320445;28;20228;-68
2024/01/21 03:20:22;;;;;;;2.57;1.63;;;;;;;;;;10307787;28;20279;-69
2024/01/21 03:25:23;;;;;;;1.33;1.33;;;;;;;;;;10294144;28;20204;-69
2024/01/21 03:30:24;;;;;;;2.67;1.60;;;;;;;;;;10324484;28;20558;-68
2024/01/21 03:35:26;;;;;;;1.53;1.43;;;;;;;;;;10317700;28;20288;-68
2024/01/21 03:40:27;;;;;;;4.53;1.70;;;;;;;;;;10313428;28;20793;-68
2024/01/21 03:45:28;;;;;;;2.83;1.33;;;;;;;;;;10317189;28;20216;-68
2024/01/21 03:50:29;;;;;;;2.20;1.60;;;;;;;;;;10313075;28;20212;-69
2024/01/21 03:55:31;;;;;;;1.83;1.70;;;;;;;;;;10318434;28;20208;-68
2024/01/21 04:00:32;;;;;;;2.67;1.17;;;;;;;;;;10323474;28;20204;-67
2024/01/21 04:05:33;;;;;;;1.27;1.17;;;;;;;;;;10312869;28;20684;-67
2024/01/21 04:10:34;;;;;;;2.23;1.60;;;;;;;;;;10313693;28;20207;-67
2024/01/21 04:15:35;;;;;;;5.93;1.87;;;;;;;;;;10314591;28;20219;-66
2024/01/21 04:20:36;;;;;;;1.83;1.67;;;;;;;;;;10309945;28;20627;-67
2024/01/21 04:25:37;;;;;;;6.63;1.83;;;;;;;;;;10290889;28;20223;-67
2024/01/21 04:30:39;;;;;;;9.87;2.00;;;;;;;;;;10322087;28;20586;-67
2024/01/21 04:35:40;;;;;;;4.77;1.90;;;;;;;;;;10326341;28;20225;-67
2024/01/21 04:40:41;;;;;;;6.67;1.87;;;;;;;;;;10318958;28;20191;-67
2024/01/21 04:45:42;;;;;;;3.10;1.70;;;;;;;;;;10313101;28;20213;-68
2024/01/21 04:50:43;;;;;;;3.60;1.97;;;;;;;;;;10312783;28;20215;-69
2024/01/21 04:55:44;;;;;;;4.20;2.00;;;;;;;;;;10320883;28;20212;-69
2024/01/21 05:00:45;;;;;;;1.80;1.70;;;;;;;;;;10317973;28;20209;-69
2024/01/21 05:05:47;;;;;;;2.03;1.33;;;;;;;;;;10314535;28;20262;-67
2024/01/21 05:10:48;;;;;;;6.10;2.60;;;;;;;;;;10313198;28;20928;-67
2024/01/21 05:15:49;;;;;;;6.70;1.93;;;;;;;;;;10319953;28;20215;-68
2024/01/21 05:20:50;;;;;;;2.50;1.90;;;;;;;;;;10306932;28;20227;-69
2024/01/21 05:25:53;;;;;;;1.43;1.33;;;;;;;;;;10306001;28;20299;-67
2024/01/21 05:30:54;;;;;;;3.20;1.60;;;;;;;;;;10319675;28;20246;-67
2024/01/21 05:35:55;;;;;;;4.40;1.73;;;;;;;;;;10311603;28;20241;-67
2024/01/21 05:40:56;;;;;;;3.83;2.13;;;;;;;;;;10300705;28;20185;-67
2024/01/21 05:45:57;;;;;;;12.67;2.00;;;;;;;;;;10320751;28;20213;-67
2024/01/21 05:50:58;;;;;;;1.97;1.87;;;;;;;;;;10329395;28;20328;-67
2024/01/21 05:55:59;;;;;;;3.93;1.80;;;;;;;;;;10322275;28;20219;-67
2024/01/21 06:01:00;;;;;;;3.07;2.20;;;;;;;;;;10307476;28;20585;-67
2024/01/21 06:06:01;;;;;;;2.63;1.60;;;;;;;;;;10281822;28;20219;-67
2024/01/21 06:11:02;;;;;;;1.80;1.70;;;;;;;;;;10278087;28;20216;-67
2024/01/21 06:16:03;;;;;;;2.70;0.97;;;;;;;;;;10285884;28;20220;-67
2024/01/21 06:21:04;;;;;;;2.73;1.57;;;;;;;;;;10278331;28;20198;-67
2024/01/21 06:26:05;;;;;;;3.63;2.00;;;;;;;;;;10266255;28;20855;-67
2024/01/21 06:31:06;;;;;;;1.33;1.23;;;;;;;;;;10273612;28;20240;-67
2024/01/21 06:36:08;;;;;;;2.90;2.37;;;;;;;;;;10235862;28;20352;-67
2024/01/21 06:41:09;;;;;;;2.17;1.23;;;;;;;;;;10234870;28;20870;-67
2024/01/21 06:46:10;;;;;;;1.83;1.70;;;;;;;;;;10230329;28;20304;-67
2024/01/21 06:51:19;;;;;;;1.93;1.47;;;;;;;;;;10237018;28;20210;-67
2024/01/21 06:56:21;;;;;;;2.87;1.67;;;;;;;;;;10223648;28;20214;-67
2024/01/21 07:01:22;;;;;;;2.23;1.63;;;;;;;;;;10242520;28;20737;-67
2024/01/21 07:06:23;;;;;;;2.63;1.67;;;;;;;;;;10238721;28;20217;-67
2024/01/21 07:11:25;;;;;;;2.63;1.10;;;;;;;;;;10236256;28;20218;-67
2024/01/21 07:16:26;;;;;;;1.10;1.00;;;;;;;;;;10241441;28;20248;-67
2024/01/21 07:21:27;;;;;;;2.37;1.07;;;;;;;;;;10229111;28;20448;-68
2024/01/21 07:26:29;;;;;;;1.30;1.20;;;;;;;;;;10227683;28;20256;-67
2024/01/21 07:31:30;;;;;;;1.57;1.47;;;;;;;;;;10231794;28;20238;-67
2024/01/21 07:36:31;;;;;;;1.37;1.30;;;;;;;;;;10273593;28;20238;-67
2024/01/21 07:41:32;;;;;;;1.60;1.37;;;;;;;;;;10267382;28;20205;-67
2024/01/21 07:46:33;;;;;;;1.53;1.43;;;;;;;;;;10272901;28;20584;-67
2024/01/21 07:51:34;;;;;;;3.13;1.40;;;;;;;;;;10262181;28;20220;-67
2024/01/21 07:56:35;;;;;;;4.30;1.47;;;;;;;;;;10288653;28;20234;-67
2024/01/21 08:01:36;;;;;;;2.20;1.27;;;;;;;;;;10263633;28;20219;-67
2024/01/21 08:06:38;;;;;;;3.10;1.50;;;;;;;;;;10287811;28;20694;-69
2024/01/21 08:11:39;;;;;;;1.67;1.40;;;;;;;;;;10294229;28;20221;-68
2024/01/21 08:16:40;;;;;;;2.37;1.37;;;;;;;;;;10290373;28;20208;-67
2024/01/21 08:21:41;;;;;;;2.03;1.57;;;;;;;;;;10271777;28;20571;-68
2024/01/21 08:26:42;;;;;;;1.95;1.15;;;;;;;;;;10273090;28;20231;-67
2024/01/21 08:31:44;;;;;;;1.50;1.37;;;;;;;;;;10281686;28;20229;-67
2024/01/21 08:36:45;;;;;;;2.50;1.50;;;;;;;;;;10275333;28;20228;-68
2024/01/21 08:41:46;;;;;;;3.42;2.47;;;;;;;;;;10283634;28;20202;-68
2024/01/21 08:46:47;;;;;;;1.93;1.60;;;;;;;;;;10275217;28;20216;-68
2024/01/21 08:51:48;;;;;;;13.60;7.05;;;;;;;;;;10274116;28;20224;-68
2024/01/21 08:56:49;;;;;;;2.40;2.20;;;;;;;;;;10268024;28;20307;-70
2024/01/21 09:01:50;;;;;;;2.53;1.90;;;;;;;;;;10281485;28;20329;-69
2024/01/21 09:06:51;;;;;;;1.30;1.30;;;;;;;;;;10257566;28;20570;-69
2024/01/21 09:11:54;;;;;;;1.63;1.52;;;;;;;;;;10266184;28;20213;-69
2024/01/21 09:16:56;;;;;;;2.97;2.20;;;;;;;;;;10265861;28;20590;-69
2024/01/21 09:21:57;;;;;;;3.80;2.53;;;;;;;;;;10268166;28;20205;-69
2024/01/21 09:26:58;;;;;;;2.03;1.92;;;;;;;;;;10273258;28;20291;-69
2024/01/21 09:31:59;;;;;;;4.25;3.25;;;;;;;;;;10276771;28;20292;-69
2024/01/21 09:37:00;;;;;;;4.30;4.00;;;;;;;;;;10284530;28;20209;-70
2024/01/21 09:42:04;;;;;;;2.20;1.60;;;;;;;;;;10251446;28;20185;-70
2024/01/21 09:47:05;;;;;;;2.33;1.80;;;;;;;;;;10260005;28;20702;-69
2024/01/21 09:52:06;;;;;;;1.48;1.40;;;;;;;;;;10264150;28;20576;-69
2024/01/21 09:57:08;;;;;;;2.55;1.40;;;;;;;;;;10272059;28;20228;-69
2024/01/21 10:02:12;;;;;;;1.30;1.20;;;;;;;;;;10263759;28;20700;-69
2024/01/21 10:07:13;;;;;;;1.65;1.45;;;;;;;;;;10300960;28;20212;-69
2024/01/21 10:12:18;;;;;;;1.88;1.65;;;;;;;;;;10304689;28;20224;-69
2024/01/21 10:17:26;;;;;;;2.42;1.27;;;;;;;;;;10308049;28;20861;-70
2024/01/21 10:22:27;;;;;;;1.08;1.08;;;;;;;;;;10284624;28;20267;-70
2024/01/21 10:27:28;;;;;;;3.00;1.70;;;;;;;;;;10304936;28;20223;-70
2024/01/21 10:32:29;;;;;;;3.25;1.52;;;;;;;;;;10291984;28;20237;-69
2024/01/21 10:37:31;;;;;;;1.33;1.30;;;;;;;;;;10266055;28;20308;-69
2024/01/21 10:42:33;;;;;;;1.25;0.90;;;;;;;;;;10258490;28;20204;-69
2024/01/21 10:47:34;;;;;;;0.80;0.80;;;;;;;;;;10236751;28;20274;-70
2024/01/21 10:52:36;;;;;;;12.27;0.90;;;;;;;;;;10252178;28;20228;-69
2024/01/21 10:57:38;;;;;;;1.08;1.08;;;;;;;;;;10256375;28;20709;-70
2024/01/21 11:02:39;;;;;;;1.02;0.93;;;;;;;;;;10258076;28;20209;-70
2024/01/21 11:07:42;;;;;;;1.30;1.30;;;;;;;;;;10261275;28;20300;-70
2024/01/21 11:12:45;;;;;;;1.00;1.00;;;;;;;;;;10261518;28;20209;-70
2024/01/21 11:17:46;;;;;;;1.15;0.80;;;;;;;;;;10250774;28;20242;-69
2024/01/21 11:22:48;;;;;;;2.38;0.80;;;;;;;;;;10251063;28;20194;-69
2024/01/21 11:27:49;;;;;;;2.70;1.00;;;;;;;;;;10262018;28;20708;-69
2024/01/21 11:32:59;;;;;;;1.02;1.02;;;;;;;;;;10281123;28;20231;-69
2024/01/21 11:38:01;;;;;;;0.70;0.70;;;;;;;;;;10293012;28;20222;-69
2024/01/21 11:43:02;;;;;;;2.92;1.33;;;;;;;;;;10345062;28;20199;-69
2024/01/21 11:48:03;;;;;;;1.05;1.05;;;;;;;;;;10351220;28;20350;-69
2024/01/21 11:53:04;;;;;;;1.10;1.10;;;;;;;;;;10331445;28;20212;-69
2024/01/21 11:58:05;;;;;;;1.25;1.25;;;;;;;;;;10348252;28;20216;-69
2024/01/21 12:03:06;;;;;;;0.70;0.70;;;;;;;;;;10339212;28;20216;-69
2024/01/21 12:08:08;;;;;;;0.90;0.88;;;;;;;;;;10324451;28;20632;-69
2024/01/21 12:13:09;;;;;;;1.33;1.23;;;;;;;;;;10323242;28;20208;-69
2024/01/21 12:18:10;;;;;;;1.33;1.00;;;;;;;;;;10338497;28;20224;-69
2024/01/21 12:23:23;;;;;;;0.70;0.70;;;;;;;;;;10354277;28;20350;-69
2024/01/21 12:28:24;;;;;;;2.15;1.27;;;;;;;;;;10348914;28;20220;-69
2024/01/21 12:33:26;;;;;;;0.80;0.80;;;;;;;;;;10350192;28;20628;-69
2024/01/21 12:38:27;;;;;;;1.50;0.98;;;;;;;;;;10332649;28;20216;-69
2024/01/21 12:43:28;;;;;;;3.30;0.90;;;;;;;;;;10327150;28;20191;-70
2024/01/21 12:48:29;;;;;;;1.20;1.10;;;;;;;;;;10339995;28;20196;-70
2024/01/21 12:53:30;;;;;;;1.15;1.00;;;;;;;;;;10352699;28;20208;-69
2024/01/21 12:58:32;;;;;;;1.00;0.90;;;;;;;;;;10342265;28;20199;-70
2024/01/21 13:03:34;;;;;;;1.63;1.52;;;;;;;;;;10345908;28;20326;-70
2024/01/21 13:08:36;;;;;;;1.52;1.30;;;;;;;;;;10337760;28;20192;-70
2024/01/21 13:13:37;;;;;;;2.20;2.10;;;;;;;;;;10325087;28;20273;-70
2024/01/21 13:18:38;;;;;;;1.55;1.45;;;;;;;;;;10353946;28;20416;-70
2024/01/21 13:23:39;;;;;;;1.75;1.55;;;;;;;;;;10354208;28;20199;-70
2024/01/21 13:34:04;;;;;;;1.45;1.35;;;;;;;;;;10332343;28;20240;-70
2024/01/21 13:39:05;;;;;;;1.60;1.50;;;;;;;;;;10336516;28;20246;-70
2024/01/21 13:44:06;;;;;;;1.48;1.38;;;;;;;;;;10328092;28;20816;-70
2024/01/21 13:49:07;;;;;;;2.72;1.95;;;;;;;;;;10344838;28;20203;-70
2024/01/21 13:54:08;;;;;;;2.28;2.08;;;;;;;;;;10335851;28;20282;-70
2024/01/21 13:59:09;;;;;;;3.20;1.77;;;;;;;;;;10347085;28;20192;-70
2024/01/21 14:04:10;;;;;;;1.73;1.63;;;;;;;;;;10338519;28;20361;-70
2024/01/21 14:09:14;;;;;;;2.17;1.85;;;;;;;;;;10336220;28;21556;-70
2024/01/21 14:14:15;;;;;;;1.98;1.83;;;;;;;;;;10326538;28;20231;-70
2024/01/21 14:19:17;;;;;;;6.28;3.38;;;;;;;;;;10346987;28;20196;-71
2024/01/21 14:24:21;;;;;;;2.28;2.15;;;;;;;;;;10341084;28;20203;-70
2024/01/21 14:29:36;;;;;;;2.60;2.40;;;;;;;;;;10347179;28;20821;-70
2024/01/21 14:34:37;;;;;;;2.53;2.15;;;;;;;;;;10350935;28;20240;-70
2024/01/21 14:39:38;;;;;;;2.40;2.30;;;;;;;;;;10348213;28;20724;-70
2024/01/21 14:44:40;;;;;;;2.85;1.95;;;;;;;;;;10339008;28;20204;-70
2024/01/21 14:49:41;;;;;;;1.40;1.38;;;;;;;;;;10344977;28;20180;-70
2024/01/21 14:54:42;;;;;;;2.45;2.25;;;;;;;;;;10357891;28;20706;-70
2024/01/21 14:59:43;;;;;;;3.80;2.05;;;;;;;;;;10350296;28;20284;-71
2024/01/21 15:04:44;;;;;;;2.95;2.50;;;;;;;;;;10353228;28;20648;-70
2024/01/21 15:09:48;;;;;;;2.72;2.05;;;;;;;;;;10348121;28;20263;-70
2024/01/21 15:14:52;;;;;;;2.25;1.83;;;;;;;;;;10346480;28;20289;-70
2024/01/21 15:19:54;;;;;;;5.03;2.05;;;;;;;;;;10336789;28;20271;-70
2024/01/21 15:24:55;;;;;;;3.40;2.22;;;;;;;;;;10330634;28;20203;-70
2024/01/21 15:29:56;;;;;;;2.78;2.58;;;;;;;;;;10330087;28;20184;-70
2024/01/21 15:34:57;;;;;;;1.90;1.80;;;;;;;;;;10310469;28;20240;-70
2024/01/21 15:39:59;;;;;;;2.20;1.98;;;;;;;;;;10323391;28;20207;-71
2024/01/21 15:45:01;;;;;;;2.90;2.10;;;;;;;;;;10323663;28;20218;-70
2024/01/21 15:50:02;;;;;;;1.58;1.48;;;;;;;;;;10324910;28;20229;-70
2024/01/21 15:55:04;;;;;;;1.70;1.60;;;;;;;;;;10329356;28;20240;-70
2024/01/21 16:00:05;;;;;;;2.45;2.25;;;;;;;;;;10335109;28;21315;-70
2024/01/21 16:05:08;;;;;;;2.35;1.73;;;;;;;;;;10331307;28;20665;-70
2024/01/21 16:10:09;;;;;;;1.98;1.88;;;;;;;;;;10341122;28;20716;-70
2024/01/21 16:15:10;;;;;;;7.22;2.20;;;;;;;;;;10311482;28;20211;-70
2024/01/21 16:20:12;;;;;;;4.40;2.25;;;;;;;;;;10328793;28;20736;-70
2024/01/21 16:25:13;;;;;;;2.80;2.28;;;;;;;;;;10361681;28;20688;-70
2024/01/21 16:30:15;;;;;;;2.85;1.95;;;;;;;;;;10364650;28;20223;-70
2024/01/21 16:35:16;;;;;;;2.53;2.22;;;;;;;;;;10342597;28;20219;-70
2024/01/21 16:40:17;;;;;;;2.65;2.20;;;;;;;;;;10359676;28;20192;-70
2024/01/21 16:45:25;;;;;;;2.45;2.22;;;;;;;;;;10340758;28;20220;-70
2024/01/21 16:50:26;;;;;;;3.72;2.50;;;;;;;;;;10341236;28;20213;-70
2024/01/21 16:55:27;;;;;;;2.53;2.22;;;;;;;;;;10343600;28;20587;-70
2024/01/21 17:00:31;;;;;;;4.68;2.00;;;;;;;;;;10345809;28;20308;-69
2024/01/21 17:05:32;;;;;;;3.05;2.22;;;;;;;;;;10347553;28;20207;-70
2024/01/21 17:10:35;;;;;;;4.20;2.50;;;;;;;;;;10338811;28;20208;-70
2024/01/21 17:15:36;;;;;;;2.42;2.20;;;;;;;;;;10341454;28;20205;-70
2024/01/21 17:20:37;;;;;;;4.82;2.78;;;;;;;;;;10343181;28;20206;-70
2024/01/21 17:25:38;;;;;;;3.35;2.80;;;;;;;;;;10332471;28;20223;-70
2024/01/21 17:30:39;;;;;;;2.60;2.40;;;;;;;;;;10353934;28;20227;-71
2024/01/21 17:35:40;;;;;;;2.88;2.53;;;;;;;;;;10333736;28;20235;-70
2024/01/21 17:40:41;;;;;;;2.80;2.60;;;;;;;;;;10328948;28;20200;-70
2024/01/21 17:45:42;;;;;;;2.95;2.75;;;;;;;;;;10348185;28;20208;-70
2024/01/21 17:50:43;;;;;;;3.17;2.05;;;;;;;;;;10342367;28;20215;-70
2024/01/21 17:55:44;;;;;;;3.17;2.47;;;;;;;;;;10339619;28;20214;-70
2024/01/21 18:00:45;;;;;;;6.97;2.28;;;;;;;;;;10358634;28;20239;-69
2024/01/21 18:05:46;;;;;;;2.90;2.55;;;;;;;;;;10355579;28;20949;-70
2024/01/21 18:10:48;;;;;;;4.70;2.65;;;;;;;;;;10347229;28;20799;-70
2024/01/21 18:15:49;;;;;;;4.07;2.20;;;;;;;;;;10352767;28;20218;-70
2024/01/21 18:20:50;;;;;;;4.05;3.08;;;;;;;;;;10348575;28;20668;-70
2024/01/21 18:25:51;;;;;;;3.28;3.00;;;;;;;;;;10316511;28;20211;-69
2024/01/21 18:30:52;;;;;;;2.78;2.58;;;;;;;;;;10347919;28;21129;-69
2024/01/21 18:35:53;;;;;;;3.97;3.13;;;;;;;;;;10328782;28;20219;-70
2024/01/21 18:40:55;;;;;;;4.63;3.38;;;;;;;;;;10344810;28;20223;-70
2024/01/21 18:45:56;;;;;;;2.17;2.08;;;;;;;;;;10330450;28;20215;-70
2024/01/21 18:50:57;;;;;;;2.78;2.58;;;;;;;;;;10343935;28;20302;-69
2024/01/21 18:56:00;;;;;;;3.72;3.28;;;;;;;;;;10331503;28;20212;-70
2024/01/21 19:01:01;;;;;;;6.78;3.85;;;;;;;;;;10335990;28;20212;-70
2024/01/21 19:06:03;;;;;;;4.35;3.30;;;;;;;;;;10350300;28;20254;-69
2024/01/21 19:11:04;;;;;;;5.05;4.30;;;;;;;;;;10337275;28;20290;-70
2024/01/21 19:16:05;;;;;;;9.38;4.15;;;;;;;;;;10329930;28;20201;-70
2024/01/21 19:21:09;;;;;;;3.67;3.38;;;;;;;;;;10347026;28;20223;-69
2024/01/21 19:26:13;;;;;;;4.05;3.35;;;;;;;;;;10326154;28;20272;-69
2024/01/21 19:31:14;;;;;;;3.97;2.78;;;;;;;;;;10336101;28;20258;-69
2024/01/21 19:36:15;;;;;;;3.80;3.50;;;;;;;;;;10344429;28;20976;-69
2024/01/21 19:41:16;;;;;;;7.65;4.05;;;;;;;;;;10339686;28;21032;-69
2024/01/21 19:46:17;;;;;;;5.88;4.03;;;;;;;;;;10339633;28;20207;-69
2024/01/21 19:51:19;;;;;;;6.75;4.00;;;;;;;;;;10347549;28;20208;-69
2024/01/21 19:56:21;;;;;;;3.72;3.20;;;;;;;;;;10332088;28;20345;-69
2024/01/21 20:01:22;;;;;;;3.17;2.92;;;;;;;;;;10325168;28;21012;-69
2024/01/21 20:06:23;;;;;;;5.43;3.90;;;;;;;;;;10342964;28;20208;-69
2024/01/21 20:11:24;;;;;;;3.45;3.15;;;;;;;;;;10344477;28;20215;-69
2024/01/21 20:16:25;;;;;;;4.32;3.42;;;;;;;;;;10338880;28;20250;-70
2024/01/21 20:21:26;;;;;;;3.40;2.92;;;;;;;;;;10357145;28;20270;-69
2024/01/21 20:26:29;;;;;;;4.50;3.78;;;;;;;;;;10313688;28;20216;-69
2024/01/21 20:31:30;;;;;;;3.90;3.55;;;;;;;;;;10322087;28;20220;-69
2024/01/21 20:36:31;;;;;;;4.13;3.05;;;;;;;;;;10348424;28;20301;-70
2024/01/21 20:41:32;;;;;;;3.78;3.38;;;;;;;;;;10331948;28;20180;-69
2024/01/21 20:46:33;;;;;;;4.28;3.50;;;;;;;;;;10340490;28;20258;-69
2024/01/21 20:51:35;;;;;;;4.22;3.55;;;;;;;;;;10344729;28;20686;-70
2024/01/21 20:56:36;;;;;;;5.95;3.75;;;;;;;;;;10347845;28;20196;-70
2024/01/21 21:01:37;;;;;;;3.65;3.35;;;;;;;;;;10354139;28;20215;-69
2024/01/21 21:06:39;;;;;;;4.47;3.50;;;;;;;;;;10355268;28;20334;-70
2024/01/21 21:11:40;;;;;;;4.00;3.05;;;;;;;;;;10333771;28;20204;-70
2024/01/21 21:16:41;;;;;;;3.17;2.92;;;;;;;;;;10360886;28;20220;-70
2024/01/21 21:21:45;;;;;;;3.35;3.05;;;;;;;;;;10352690;28;20192;-70
2024/01/21 21:26:46;;;;;;;4.43;2.63;;;;;;;;;;10349453;28;20208;-70
2024/01/21 21:31:47;;;;;;;5.45;2.90;;;;;;;;;;10359210;28;20259;-69
2024/01/21 21:36:48;;;;;;;4.45;3.20;;;;;;;;;;10355253;28;20216;-69
2024/01/21 21:41:50;;;;;;;3.30;3.05;;;;;;;;;;10334825;28;20258;-70
2024/01/21 21:46:51;;;;;;;6.07;3.58;;;;;;;;;;10358806;28;20194;-70
2024/01/21 21:51:52;;;;;;;4.63;3.30;;;;;;;;;;10355215;28;20204;-70
2024/01/21 21:56:53;;;;;;;4.32;3.10;;;;;;;;;;10351096;28;20291;-70
2024/01/21 22:01:54;;;;;;;3.38;2.63;;;;;;;;;;10348249;28;20674;-70
2024/01/21 22:06:55;;;;;;;3.35;2.95;;;;;;;;;;10340787;28;20242;-70
2024/01/21 22:11:57;;;;;;;2.47;2.28;;;;;;;;;;10336702;28;20223;-69
2024/01/21 22:16:58;;;;;;;2.63;2.17;;;;;;;;;;10355245;28;20902;-69
2024/01/21 22:21:59;;;;;;;3.42;2.00;;;;;;;;;;10353009;28;20816;-70
2024/01/21 22:27:00;;;;;;;2.83;2.47;;;;;;;;;;10356331;28;20216;-70
2024/01/21 22:32:01;;;;;;;2.58;2.33;;;;;;;;;;10344902;28;20298;-70
2024/01/21 22:37:03;;;;;;;1.98;1.88;;;;;;;;;;10339448;28;20219;-70
2024/01/21 22:42:04;;;;;;;2.15;1.92;;;;;;;;;;10345409;28;20185;-69
2024/01/21 22:47:06;;;;;;;1.83;1.73;;;;;;;;;;10346045;28;20670;-70
2024/01/21 22:52:07;;;;;;;2.88;2.33;;;;;;;;;;10349662;28;20317;-70
2024/01/21 22:57:08;;;;;;;3.40;2.13;;;;;;;;;;10353648;28;20844;-69
2024/01/21 23:02:09;;;;;;;2.00;1.75;;;;;;;;;;10346550;28;21445;-69
2024/01/21 23:07:10;;;;;;;1.58;1.52;;;;;;;;;;10357087;28;20209;-70
2024/01/21 23:12:11;;;;;;;3.92;1.65;;;;;;;;;;10337239;28;20216;-70
2024/01/21 23:17:12;;;;;;;2.10;1.73;;;;;;;;;;10350639;28;20204;-70
2024/01/21 23:22:13;;;;;;;1.67;1.58;;;;;;;;;;10355307;28;20561;-70
2024/01/21 23:27:15;;;;;;;3.25;1.67;;;;;;;;;;10341881;28;20852;-69
2024/01/21 23:32:16;;;;;;;3.28;1.23;;;;;;;;;;10354468;28;20313;-70
2024/01/21 23:37:17;;;;;;;1.45;1.45;;;;;;;;;;10334715;28;20286;-70
2024/01/21 23:42:18;;;;;;;2.83;1.10;;;;;;;;;;10334621;28;20725;-70
2024/01/21 23:47:19;;;;;;;3.33;1.90;;;;;;;;;;10333161;28;20207;-70
2024/01/21 23:52:20;;;;;;;1.17;1.13;;;;;;;;;;10347091;28;20208;-70
2024/01/21 23:57:21;;;;;;;5.85;2.05;;;;;;;;;;10329192;28;20219;-70
